SPPPF VNJI-VNLK
Flight info
| Callsign | SPPPF |
|---|---|
| Flight time | 0h 23m |
| Altitude | 12000 |
| Route | DCT |
| Aircraft | 222B/L-VGD/A |
Departure
| Time | 2025-11-20 21:19 |
|---|---|
| Airport | Jiri Airport (VNJI) |
Arrival
| Time | 2025-11-20 21:42 |
|---|---|
| Airport | Tenzing-Hillary Airport (VNLK) |
| Time | Latitude | Longitude | Altitude | Speed | Heading |
|---|---|---|---|---|---|
| 2025-11-20 21:14 | 27.62464 | 86.23101 | 6083 ft | 0 kts | 347° |
| 2025-11-20 21:15 | 27.62471 | 86.23109 | 6084 ft | 0 kts | 32° |
| 2025-11-20 21:15 | 27.62464 | 86.23108 | 6082 ft | 0 kts | 267° |
| 2025-11-20 21:16 | 27.62486 | 86.23087 | 6186 ft | 18 kts | 6° |
| 2025-11-20 21:16 | 27.62503 | 86.23178 | 6457 ft | 45 kts | 216° |
| 2025-11-20 21:17 | 27.62404 | 86.23615 | 6628 ft | 19 kts | 120° |
| 2025-11-20 21:17 | 27.62463 | 86.23101 | 6084 ft | 0 kts | 317° |
| 2025-11-20 21:18 | 27.62472 | 86.23179 | 6216 ft | 31 kts | 128° |
| 2025-11-20 21:18 | 27.62791 | 86.23310 | 6933 ft | 60 kts | 82° |
| 2025-11-20 21:19 | 27.62464 | 86.23101 | 6083 ft | 0 kts | 346° |
| 2025-11-20 21:19 | 27.62495 | 86.23105 | 6096 ft | 7 kts | 336° |
| 2025-11-20 21:20 | 27.62572 | 86.23115 | 6263 ft | 15 kts | 9° |
| 2025-11-20 21:21 | 27.62183 | 86.24023 | 7918 ft | 49 kts | 117° |
| 2025-11-20 21:21 | 27.62077 | 86.24342 | 8392 ft | 35 kts | 91° |
| 2025-11-20 21:21 | 27.61959 | 86.25243 | 9020 ft | 74 kts | 83° |
| 2025-11-20 21:22 | 27.62038 | 86.26586 | 9596 ft | 107 kts | 86° |
| 2025-11-20 21:22 | 27.61924 | 86.28166 | 10426 ft | 98 kts | 98° |
| 2025-11-20 21:23 | 27.61497 | 86.29921 | 10722 ft | 141 kts | 120° |
| 2025-11-20 21:23 | 27.60658 | 86.31932 | 10320 ft | 148 kts | 110° |
| 2025-11-20 21:24 | 27.60313 | 86.32914 | 10603 ft | 120 kts | 117° |
| 2025-11-20 21:24 | 27.59757 | 86.34737 | 10843 ft | 131 kts | 105° |
| 2025-11-20 21:25 | 27.58991 | 86.37736 | 10746 ft | 154 kts | 106° |
| 2025-11-20 21:25 | 27.58305 | 86.40142 | 10479 ft | 146 kts | 117° |
| 2025-11-20 21:26 | 27.57776 | 86.42304 | 10418 ft | 148 kts | 93° |
| 2025-11-20 21:26 | 27.57714 | 86.44411 | 10296 ft | 141 kts | 91° |
| 2025-11-20 21:27 | 27.57344 | 86.46319 | 10717 ft | 126 kts | 131° |
| 2025-11-20 21:27 | 27.56128 | 86.47607 | 11174 ft | 118 kts | 154° |
| 2025-11-20 21:28 | 27.55419 | 86.48089 | 11464 ft | 126 kts | 149° |
| 2025-11-20 21:28 | 27.53964 | 86.49373 | 11438 ft | 151 kts | 116° |
| 2025-11-20 21:29 | 27.53671 | 86.53410 | 9118 ft | 160 kts | 97° |
| 2025-11-20 21:30 | 27.52630 | 86.56731 | 8354 ft | 134 kts | 119° |
| 2025-11-20 21:30 | 27.52329 | 86.57634 | 8468 ft | 119 kts | 105° |
| 2025-11-20 21:30 | 27.51479 | 86.58534 | 8463 ft | 109 kts | 255° |
| 2025-11-20 21:31 | 27.52564 | 86.58196 | 8554 ft | 89 kts | 39° |
| 2025-11-20 21:31 | 27.52369 | 86.58663 | 8408 ft | 92 kts | 171° |
| 2025-11-20 21:32 | 27.52293 | 86.58563 | 8210 ft | 67 kts | 153° |
| 2025-11-20 21:33 | 27.51691 | 86.58455 | 8136 ft | 0 kts | 201° |
| 2025-11-20 21:34 | 27.51680 | 86.58534 | 8274 ft | 12 kts | 65° |
| 2025-11-20 21:34 | 27.51835 | 86.58626 | 8507 ft | 57 kts | 18° |
| 2025-11-20 21:34 | 27.52139 | 86.59602 | 9034 ft | 78 kts | 86° |
| 2025-11-20 21:35 | 27.52352 | 86.60706 | 9830 ft | 71 kts | 79° |
| 2025-11-20 21:35 | 27.52643 | 86.61798 | 10484 ft | 83 kts | 80° |
| 2025-11-20 21:36 | 27.52796 | 86.63041 | 11032 ft | 100 kts | 68° |
| 2025-11-20 21:37 | 27.54697 | 86.64733 | 10592 ft | 164 kts | 49° |
| 2025-11-20 21:37 | 27.56733 | 86.66354 | 9511 ft | 168 kts | 30° |
| 2025-11-20 21:38 | 27.57690 | 86.67068 | 9151 ft | 168 kts | 32° |
| 2025-11-20 21:38 | 27.59664 | 86.68251 | 8922 ft | 143 kts | 31° |
| 2025-11-20 21:39 | 27.61755 | 86.69150 | 7996 ft | 171 kts | 11° |
| 2025-11-20 21:39 | 27.63939 | 86.69893 | 7656 ft | 148 kts | 9° |
| 2025-11-20 21:40 | 27.65761 | 86.70448 | 7827 ft | 135 kts | 23° |
| 2025-11-20 21:40 | 27.67244 | 86.71275 | 8855 ft | 103 kts | 26° |
| 2025-11-20 21:41 | 27.68694 | 86.72563 | 9618 ft | 67 kts | 36° |
| 2025-11-20 21:41 | 27.68540 | 86.73220 | 9644 ft | 58 kts | 224° |
| 2025-11-20 21:42 | 27.68688 | 86.73068 | 9482 ft | 17 kts | 178° |
| 2025-11-20 21:42 | 27.68526 | 86.72924 | 9541 ft | 44 kts | 338° |
| 2025-11-20 21:43 | 27.68683 | 86.72986 | 9394 ft | 20 kts | 31° |
| 2025-11-20 21:43 | 27.68739 | 86.73171 | 9444 ft | 6 kts | 183° |